Time;durP1;ratioP1;P1;durP2;ratioP2;P2;SDS_P1;SDS_P2;PMS_P1;PMS_P2;Temp;Humidity;BMP_temperature;BMP_pressure;BME280_temperature;BME280_humidity;BME280_pressure;Samples;Min_cycle;Max_cycle;Signal;HPM_P1;HPM_P2
2023/03/14 00:02:18;;;;;;;;;;;;;;;;;;4995228;28;20446;-62
2023/03/14 00:04:43;;;;;;;;;;;;;;;;;;4962269;28;19918;-62
2023/03/14 00:07:08;;;;;;;;;;;;;;;;;;4995673;28;20129;-63
2023/03/14 00:09:34;;;;;;;;;;;;;;;;;;4993375;28;20185;-64
2023/03/14 00:11:59;;;;;;;;;;;;;;;;;;4978875;28;19930;-64
2023/03/14 00:14:24;;;;;;;;;;;;;;;;;;4981189;28;19932;-64
2023/03/14 00:16:52;;;;;;;;;;;;;;;;;;4979764;28;19924;-64
2023/03/14 00:19:20;;;;;;;;;;;;;;;;;;4981596;28;19917;-64
2023/03/14 00:21:48;;;;;;;;;;;;;;;;;;4983761;28;20214;-63
2023/03/14 00:24:13;;;;;;;;;;;;;;;;;;4982033;28;20539;-64
2023/03/14 00:26:38;;;;;;;;;;;;;;;;;;4981427;28;20012;-64
2023/03/14 00:29:04;;;;;;;;;;;;;;;;;;4995737;28;19926;-64
2023/03/14 00:31:29;;;;;;;;;;;;;;;;;;4996441;28;19975;-64
2023/03/14 00:33:54;;;;;;;;;;;;;;;;;;4964842;28;20313;-64
2023/03/14 00:36:23;;;;;;;;;;;;;;;;;;4962689;28;19921;-65
2023/03/14 00:38:48;;;;;;;;;;;;;;;;;;4978533;28;19917;-63
2023/03/14 00:41:16;;;;;;;;;;;;;;;;;;4968194;28;19926;-62
2023/03/14 00:43:44;;;;;;;;;;;;;;;;;;4956954;28;19922;-62
2023/03/14 00:46:10;;;;;;;;;;;;;;;;;;4955878;28;19988;-63
2023/03/14 00:48:35;;;;;;;;;;;;;;;;;;4953271;28;19926;-63
2023/03/14 00:51:01;;;;;;;;;;;;;;;;;;4953324;28;19960;-62
2023/03/14 00:53:26;;;;;;;;;;;;;;;;;;4967078;28;19929;-62
2023/03/14 00:55:51;;;;;;;;;;;;;;;;;;4971014;28;19919;-63
2023/03/14 00:58:17;;;;;;;;;;;;;;;;;;4928041;28;19922;-63
2023/03/14 01:00:42;;;;;;;;;;;;;;;;;;4971205;28;19932;-62
2023/03/14 01:03:07;;;;;;;;;;;;;;;;;;4968892;28;21483;-62
2023/03/14 01:05:33;;;;;;;;;;;;;;;;;;4956300;28;20416;-63
2023/03/14 01:07:58;;;;;;;;;;;;;;;;;;4968781;28;19917;-62
2023/03/14 01:10:24;;;;;;;;;;;;;;;;;;4952913;28;19922;-65
2023/03/14 01:12:51;;;;;;;;;;;;;;;;;;4952667;28;19930;-62
2023/03/14 01:15:18;;;;;;;;;;;;;;;;;;4940961;28;19975;-64
2023/03/14 01:17:43;;;;;;;;;;;;;;;;;;4969149;28;20578;-62
2023/03/14 01:20:11;;;;;;;;;;;;;;;;;;4954745;28;20331;-62
2023/03/14 01:22:39;;;;;;;;;;;;;;;;;;4969944;28;20106;-62
2023/03/14 01:25:04;;;;;;;;;;;;;;;;;;4943324;28;20358;-61
2023/03/14 01:27:30;;;;;;;;;;;;;;;;;;4959351;28;19921;-62
2023/03/14 01:29:55;;;;;;;;;;;;;;;;;;4950462;28;19925;-62
2023/03/14 01:32:21;;;;;;;;;;;;;;;;;;4950579;28;19918;-62
2023/03/14 01:34:48;;;;;;;;;;;;;;;;;;4962548;28;19922;-64
2023/03/14 01:37:14;;;;;;;;;;;;;;;;;;4963393;28;20373;-62
2023/03/14 01:39:40;;;;;;;;;;;;;;;;;;4929885;28;19922;-63
2023/03/14 01:42:07;;;;;;;;;;;;;;;;;;4946958;28;19925;-63
2023/03/14 01:44:33;;;;;;;;;;;;;;;;;;4954949;28;19957;-63
2023/03/14 01:46:58;;;;;;;;;;;;;;;;;;4952441;28;21653;-65
2023/03/14 01:49:26;;;;;;;;;;;;;;;;;;4953296;28;19987;-62
2023/03/14 01:51:51;;;;;;;;;;;;;;;;;;4965896;28;19917;-63
2023/03/14 01:54:24;;;;;;;;;;;;;;;;;;4926956;28;19922;-63
2023/03/14 02:00:15;;;;;;;;;;;;;;;;;;4957718;28;19940;-63
2023/03/14 02:02:40;;;;;;;;;;;;;;;;;;4959365;28;20004;-63
2023/03/14 02:05:06;;;;;;;;;;;;;;;;;;4960751;28;19933;-64
2023/03/14 02:07:31;;;;;;;;;;;;;;;;;;4957384;28;20712;-64
2023/03/14 02:09:59;;;;;;;;;;;;;;;;;;4958769;28;20074;-63
2023/03/14 02:12:25;;;;;;;;;;;;;;;;;;4972780;28;20016;-62
2023/03/14 02:14:50;;;;;;;;;;;;;;;;;;4942755;28;20064;-63
2023/03/14 02:17:15;;;;;;;;;;;;;;;;;;4938870;28;21067;-62
2023/03/14 02:19:40;;;;;;;;;;;;;;;;;;4969941;28;20543;-63
2023/03/14 02:22:06;;;;;;;;;;;;;;;;;;4958220;28;19921;-63
2023/03/14 02:24:31;;;;;;;;;;;;;;;;;;4955717;28;19973;-63
2023/03/14 02:26:56;;;;;;;;;;;;;;;;;;4957059;28;19932;-62
2023/03/14 02:29:24;;;;;;;;;;;;;;;;;;4956947;28;19932;-62
2023/03/14 02:31:51;;;;;;;;;;;;;;;;;;4972938;28;19922;-64
2023/03/14 02:34:17;;;;;;;;;;;;;;;;;;4973998;28;19925;-63
2023/03/14 02:36:42;;;;;;;;;;;;;;;;;;4932547;28;20005;-64
2023/03/14 02:39:08;;;;;;;;;;;;;;;;;;4971910;28;19918;-62
2023/03/14 02:41:33;;;;;;;;;;;;;;;;;;4956530;28;19930;-63
2023/03/14 02:44:01;;;;;;;;;;;;;;;;;;4968701;28;19918;-64
2023/03/14 02:46:28;;;;;;;;;;;;;;;;;;4952850;28;19922;-64
2023/03/14 02:48:53;;;;;;;;;;;;;;;;;;4969433;28;19979;-64
2023/03/14 02:51:19;;;;;;;;;;;;;;;;;;4942364;28;19990;-63
2023/03/14 02:53:47;;;;;;;;;;;;;;;;;;4969657;28;19928;-64
2023/03/14 02:56:19;;;;;;;;;;;;;;;;;;4914985;28;19923;-63
2023/03/14 02:58:44;;;;;;;;;;;;;;;;;;4916720;28;19998;-63
2023/03/14 03:01:09;;;;;;;;;;;;;;;;;;4899190;29;19949;-63
2023/03/14 03:03:35;;;;;;;;;;;;;;;;;;4915079;28;19927;-63
2023/03/14 03:06:01;;;;;;;;;;;;;;;;;;4910919;28;20131;-63
2023/03/14 03:08:28;;;;;;;;;;;;;;;;;;4896152;29;19927;-63
2023/03/14 03:10:54;;;;;;;;;;;;;;;;;;4912502;28;19971;-62
2023/03/14 03:13:19;;;;;;;;;;;;;;;;;;4914264;28;19923;-62
2023/03/14 03:15:45;;;;;;;;;;;;;;;;;;4897668;29;19970;-62
2023/03/14 03:18:10;;;;;;;;;;;;;;;;;;4902375;29;19950;-63
2023/03/14 03:20:36;;;;;;;;;;;;;;;;;;4915522;28;19988;-64
2023/03/14 03:23:01;;;;;;;;;;;;;;;;;;4914838;28;19925;-63
2023/03/14 03:25:26;;;;;;;;;;;;;;;;;;4915988;28;20015;-64
2023/03/14 03:27:52;;;;;;;;;;;;;;;;;;4939973;28;19944;-64
2023/03/14 03:30:20;;;;;;;;;;;;;;;;;;4928054;28;19922;-64
2023/03/14 03:32:45;;;;;;;;;;;;;;;;;;4954394;28;19929;-64
2023/03/14 03:35:13;;;;;;;;;;;;;;;;;;4969123;28;20333;-64
2023/03/14 03:37:41;;;;;;;;;;;;;;;;;;4950630;28;20355;-64
2023/03/14 03:40:06;;;;;;;;;;;;;;;;;;4951936;28;21883;-65
2023/03/14 03:42:32;;;;;;;;;;;;;;;;;;4952435;28;19969;-66
2023/03/14 03:44:57;;;;;;;;;;;;;;;;;;4939768;28;19922;-65
2023/03/14 03:47:23;;;;;;;;;;;;;;;;;;4955586;28;19922;-68
2023/03/14 03:49:48;;;;;;;;;;;;;;;;;;4955213;28;19968;-66
2023/03/14 03:52:14;;;;;;;;;;;;;;;;;;4970436;28;19922;-67
2023/03/14 03:54:39;;;;;;;;;;;;;;;;;;4967249;28;20328;-66
2023/03/14 03:57:05;;;;;;;;;;;;;;;;;;4951500;28;20409;-66
2023/03/14 03:59:30;;;;;;;;;;;;;;;;;;4966702;28;20310;-66
2023/03/14 04:01:56;;;;;;;;;;;;;;;;;;4953022;28;19929;-65
2023/03/14 04:04:21;;;;;;;;;;;;;;;;;;4966601;28;20460;-65
2023/03/14 04:06:46;;;;;;;;;;;;;;;;;;4942452;28;19921;-65
2023/03/14 04:09:11;;;;;;;;;;;;;;;;;;4957790;28;19948;-65
2023/03/14 04:11:37;;;;;;;;;;;;;;;;;;4954467;28;19921;-65
2023/03/14 04:14:02;;;;;;;;;;;;;;;;;;4969509;28;19922;-64
2023/03/14 04:16:27;;;;;;;;;;;;;;;;;;4953529;28;19922;-64
2023/03/14 04:18:56;;;;;;;;;;;;;;;;;;4952137;28;20680;-63
2023/03/14 04:21:21;;;;;;;;;;;;;;;;;;4954511;28;20340;-63
2023/03/14 04:23:46;;;;;;;;;;;;;;;;;;4953779;28;20647;-63
2023/03/14 04:26:12;;;;;;;;;;;;;;;;;;4950374;28;19921;-63
2023/03/14 04:28:38;;;;;;;;;;;;;;;;;;4951539;28;19926;-63
2023/03/14 04:31:04;;;;;;;;;;;;;;;;;;4925034;28;19929;-63
2023/03/14 04:33:29;;;;;;;;;;;;;;;;;;4937728;28;19922;-63
2023/03/14 04:35:57;;;;;;;;;;;;;;;;;;4953677;28;20555;-63
2023/03/14 04:38:25;;;;;;;;;;;;;;;;;;4968408;28;19929;-63
2023/03/14 04:40:50;;;;;;;;;;;;;;;;;;4967047;28;20499;-63
2023/03/14 04:43:18;;;;;;;;;;;;;;;;;;4963232;28;19981;-63
2023/03/14 04:45:46;;;;;;;;;;;;;;;;;;4934420;28;20255;-63
2023/03/14 04:48:12;;;;;;;;;;;;;;;;;;4933319;28;20234;-62
2023/03/14 04:50:37;;;;;;;;;;;;;;;;;;4937782;28;19980;-63
2023/03/14 04:53:02;;;;;;;;;;;;;;;;;;4947924;28;19924;-64
2023/03/14 04:55:32;;;;;;;;;;;;;;;;;;4964743;28;20655;-63
2023/03/14 04:58:00;;;;;;;;;;;;;;;;;;4936350;28;19925;-64
2023/03/14 05:00:28;;;;;;;;;;;;;;;;;;4965412;28;19929;-63
2023/03/14 05:02:53;;;;;;;;;;;;;;;;;;4965833;28;19922;-64
2023/03/14 05:05:18;;;;;;;;;;;;;;;;;;4964985;28;20321;-64
2023/03/14 05:07:43;;;;;;;;;;;;;;;;;;4948303;28;19922;-63
2023/03/14 05:10:09;;;;;;;;;;;;;;;;;;4932943;28;20001;-62
2023/03/14 05:12:34;;;;;;;;;;;;;;;;;;4933206;28;19945;-64
2023/03/14 05:15:04;;;;;;;;;;;;;;;;;;4934108;28;20001;-63
2023/03/14 05:17:31;;;;;;;;;;;;;;;;;;4922757;28;20342;-62
2023/03/14 05:19:57;;;;;;;;;;;;;;;;;;4964718;28;19926;-64
2023/03/14 05:22:25;;;;;;;;;;;;;;;;;;4935978;28;19967;-67
2023/03/14 05:24:58;;;;;;;;;;;;;;;;;;4963345;28;20096;-64
2023/03/14 05:27:23;;;;;;;;;;;;;;;;;;4949159;28;22189;-64
2023/03/14 05:29:49;;;;;;;;;;;;;;;;;;4934395;28;19930;-65
2023/03/14 05:32:14;;;;;;;;;;;;;;;;;;4939084;28;19930;-64
2023/03/14 05:34:39;;;;;;;;;;;;;;;;;;4951064;28;19965;-62
2023/03/14 05:37:05;;;;;;;;;;;;;;;;;;4966660;28;19954;-63
2023/03/14 05:39:33;;;;;;;;;;;;;;;;;;4970589;28;20013;-63
2023/03/14 05:45:18;;;;;;;;;;;;;;;;;;4936475;28;20381;-66
2023/03/14 05:47:45;;;;;;;;;;;;;;;;;;4967492;28;19923;-64
2023/03/14 05:50:11;;;;;;;;;;;;;;;;;;4940546;28;20157;-64
2023/03/14 05:52:39;;;;;;;;;;;;;;;;;;4941337;28;20533;-64
2023/03/14 05:55:04;;;;;;;;;;;;;;;;;;4935856;28;20580;-64
2023/03/14 05:57:30;;;;;;;;;;;;;;;;;;4932014;28;19922;-66
2023/03/14 05:59:58;;;;;;;;;;;;;;;;;;4948866;28;20525;-64
2023/03/14 06:02:23;;;;;;;;;;;;;;;;;;4969001;28;19918;-63
2023/03/14 06:04:51;;;;;;;;;;;;;;;;;;4940170;28;19922;-65
2023/03/14 06:07:22;;;;;;;;;;;;;;;;;;4955142;28;21031;-63
2023/03/14 06:09:47;;;;;;;;;;;;;;;;;;4966068;28;19923;-63
2023/03/14 06:12:13;;;;;;;;;;;;;;;;;;4969234;28;20052;-64
2023/03/14 06:14:41;;;;;;;;;;;;;;;;;;4970840;28;20029;-64
2023/03/14 06:17:09;;;;;;;;;;;;;;;;;;4945692;28;20092;-63
2023/03/14 06:19:34;;;;;;;;;;;;;;;;;;4937813;28;20430;-63
2023/03/14 06:22:02;;;;;;;;;;;;;;;;;;4959719;28;19969;-62
2023/03/14 06:24:29;;;;;;;;;;;;;;;;;;4934449;28;19945;-65
2023/03/14 06:26:55;;;;;;;;;;;;;;;;;;4967280;28;19918;-66
2023/03/14 06:29:20;;;;;;;;;;;;;;;;;;4964988;28;20472;-65
2023/03/14 06:31:45;;;;;;;;;;;;;;;;;;4935247;28;20275;-66
2023/03/14 06:34:11;;;;;;;;;;;;;;;;;;4939150;28;19922;-67
2023/03/14 06:36:36;;;;;;;;;;;;;;;;;;4939825;28;19944;-67
2023/03/14 06:39:04;;;;;;;;;;;;;;;;;;4952377;28;19929;-65
2023/03/14 06:41:29;;;;;;;;;;;;;;;;;;4927071;28;21839;-65
2023/03/14 06:43:54;;;;;;;;;;;;;;;;;;4948062;28;20234;-64
2023/03/14 06:46:22;;;;;;;;;;;;;;;;;;4967219;28;20563;-66
2023/03/14 06:48:47;;;;;;;;;;;;;;;;;;4953877;28;19921;-65
2023/03/14 06:51:15;;;;;;;;;;;;;;;;;;4954892;28;20096;-65
2023/03/14 06:53:40;;;;;;;;;;;;;;;;;;4950807;28;20060;-65
2023/03/14 06:56:11;;;;;;;;;;;;;;;;;;4954172;28;20472;-66
2023/03/14 06:58:39;;;;;;;;;;;;;;;;;;4969058;28;19953;-64
2023/03/14 07:01:06;;;;;;;;;;;;;;;;;;4970420;28;20720;-66
2023/03/14 07:03:32;;;;;;;;;;;;;;;;;;4968062;28;19922;-67
2023/03/14 07:05:59;;;;;;;;;;;;;;;;;;4940786;28;19918;-69
2023/03/14 07:08:25;;;;;;;;;;;;;;;;;;4958118;28;19928;-67
2023/03/14 07:10:52;;;;;;;;;;;;;;;;;;4956027;28;19990;-67
2023/03/14 07:13:20;;;;;;;;;;;;;;;;;;4958640;28;19964;-66
2023/03/14 07:15:48;;;;;;;;;;;;;;;;;;4943168;28;19945;-66
2023/03/14 07:18:16;;;;;;;;;;;;;;;;;;4961248;28;20452;-67
2023/03/14 07:20:43;;;;;;;;;;;;;;;;;;4958556;28;19921;-66
2023/03/14 07:23:09;;;;;;;;;;;;;;;;;;4958045;28;20292;-65
2023/03/14 07:25:34;;;;;;;;;;;;;;;;;;4943011;28;22217;-66
2023/03/14 07:28:02;;;;;;;;;;;;;;;;;;4956195;28;20716;-65
2023/03/14 07:30:27;;;;;;;;;;;;;;;;;;4955466;28;20413;-65
2023/03/14 07:32:52;;;;;;;;;;;;;;;;;;4941671;28;20615;-65
2023/03/14 07:35:18;;;;;;;;;;;;;;;;;;4954660;28;19929;-64
2023/03/14 07:37:43;;;;;;;;;;;;;;;;;;4973807;28;19926;-64
2023/03/14 07:40:14;;;;;;;;;;;;;;;;;;4973799;28;19936;-65
2023/03/14 07:42:42;;;;;;;;;;;;;;;;;;4957939;28;20032;-66
2023/03/14 07:45:07;;;;;;;;;;;;;;;;;;4942962;28;19961;-65
2023/03/14 07:47:33;;;;;;;;;;;;;;;;;;4973400;28;20052;-66
2023/03/14 07:49:58;;;;;;;;;;;;;;;;;;4959049;28;19961;-65
2023/03/14 07:52:24;;;;;;;;;;;;;;;;;;4934111;28;19932;-66
2023/03/14 07:55:00;;;;;;;;;;;;;;;;;;4972996;28;20302;-67
2023/03/14 07:57:28;;;;;;;;;;;;;;;;;;4959874;28;19922;-67
2023/03/14 07:59:56;;;;;;;;;;;;;;;;;;4959063;28;19932;-66
2023/03/14 08:02:23;;;;;;;;;;;;;;;;;;4973226;28;20860;-68
2023/03/14 08:04:49;;;;;;;;;;;;;;;;;;4972473;28;20538;-68
2023/03/14 08:07:14;;;;;;;;;;;;;;;;;;4958051;28;20008;-65
2023/03/14 08:09:42;;;;;;;;;;;;;;;;;;4943272;28;20340;-68
2023/03/14 08:12:10;;;;;;;;;;;;;;;;;;4957775;28;19968;-67
2023/03/14 08:14:35;;;;;;;;;;;;;;;;;;4972161;28;19922;-67
2023/03/14 08:17:01;;;;;;;;;;;;;;;;;;4944386;28;22026;-66
2023/03/14 08:19:29;;;;;;;;;;;;;;;;;;4972743;28;19918;-69
2023/03/14 08:21:56;;;;;;;;;;;;;;;;;;4958871;28;20238;-67
2023/03/14 08:24:24;;;;;;;;;;;;;;;;;;4958322;28;19918;-68
2023/03/14 08:26:55;;;;;;;;;;;;;;;;;;4972184;28;19925;-68
2023/03/14 08:29:23;;;;;;;;;;;;;;;;;;4972621;28;19925;-67
2023/03/14 08:31:54;;;;;;;;;;;;;;;;;;4971357;28;19922;-66
2023/03/14 08:34:20;;;;;;;;;;;;;;;;;;4970664;28;20024;-67
2023/03/14 08:36:45;;;;;;;;;;;;;;;;;;4961118;28;19918;-66
2023/03/14 08:39:10;;;;;;;;;;;;;;;;;;4955360;28;20009;-64
2023/03/14 08:41:40;;;;;;;;;;;;;;;;;;4971742;28;20517;-66
2023/03/14 08:44:06;;;;;;;;;;;;;;;;;;4970921;28;21173;-66
2023/03/14 08:46:31;;;;;;;;;;;;;;;;;;4971344;28;19918;-65
2023/03/14 08:48:56;;;;;;;;;;;;;;;;;;4927833;28;20836;-66
2023/03/14 08:51:21;;;;;;;;;;;;;;;;;;4971081;28;19957;-66
2023/03/14 08:53:47;;;;;;;;;;;;;;;;;;4957121;28;19993;-66
2023/03/14 08:56:14;;;;;;;;;;;;;;;;;;4971143;28;19922;-66
2023/03/14 08:58:43;;;;;;;;;;;;;;;;;;4971220;28;19937;-65
2023/03/14 09:01:08;;;;;;;;;;;;;;;;;;4956216;28;19918;-64
2023/03/14 09:03:39;;;;;;;;;;;;;;;;;;4970968;28;21950;-64
2023/03/14 09:06:04;;;;;;;;;;;;;;;;;;4954630;28;20003;-65
2023/03/14 09:08:30;;;;;;;;;;;;;;;;;;4943051;28;19921;-64
2023/03/14 09:10:55;;;;;;;;;;;;;;;;;;4954207;28;20440;-65
2023/03/14 09:13:23;;;;;;;;;;;;;;;;;;4954593;28;19922;-65
2023/03/14 09:15:48;;;;;;;;;;;;;;;;;;4941256;28;19957;-65
2023/03/14 09:18:13;;;;;;;;;;;;;;;;;;4956940;28;20298;-64
2023/03/14 09:20:41;;;;;;;;;;;;;;;;;;4971067;28;19926;-66
2023/03/14 09:23:06;;;;;;;;;;;;;;;;;;4957082;28;19925;-63
2023/03/14 09:25:34;;;;;;;;;;;;;;;;;;4970448;28;19933;-65
2023/03/14 09:28:00;;;;;;;;;;;;;;;;;;4971352;28;19922;-64
2023/03/14 09:30:28;;;;;;;;;;;;;;;;;;4957245;28;20526;-64
2023/03/14 09:32:53;;;;;;;;;;;;;;;;;;4960988;28;19922;-65
2023/03/14 09:35:18;;;;;;;;;;;;;;;;;;4971805;28;19918;-67
2023/03/14 09:37:44;;;;;;;;;;;;;;;;;;4931550;28;20048;-65
2023/03/14 09:40:11;;;;;;;;;;;;;;;;;;4971068;28;20012;-65
2023/03/14 09:42:37;;;;;;;;;;;;;;;;;;4944223;28;19973;-66
2023/03/14 09:45:05;;;;;;;;;;;;;;;;;;4956904;28;20291;-67
2023/03/14 09:47:30;;;;;;;;;;;;;;;;;;4958467;28;19932;-66
2023/03/14 09:49:59;;;;;;;;;;;;;;;;;;4970425;28;19922;-67
2023/03/14 09:52:24;;;;;;;;;;;;;;;;;;4930700;28;19922;-66
2023/03/14 09:54:50;;;;;;;;;;;;;;;;;;4956306;28;19924;-66
2023/03/14 09:57:15;;;;;;;;;;;;;;;;;;4964420;28;20416;-65
2023/03/14 09:59:41;;;;;;;;;;;;;;;;;;4957649;28;20028;-66
2023/03/14 10:02:06;;;;;;;;;;;;;;;;;;4971352;28;19922;-65
2023/03/14 10:04:32;;;;;;;;;;;;;;;;;;4956572;28;20376;-64
2023/03/14 10:06:58;;;;;;;;;;;;;;;;;;4957209;28;20056;-65
2023/03/14 10:09:26;;;;;;;;;;;;;;;;;;4941196;28;19973;-66
2023/03/14 10:11:51;;;;;;;;;;;;;;;;;;4957861;28;20025;-64
2023/03/14 10:14:19;;;;;;;;;;;;;;;;;;4970994;28;19918;-66
2023/03/14 10:16:45;;;;;;;;;;;;;;;;;;4975111;28;20002;-66
2023/03/14 10:19:10;;;;;;;;;;;;;;;;;;4958944;28;19922;-65
2023/03/14 10:21:35;;;;;;;;;;;;;;;;;;4973880;28;20476;-65
2023/03/14 10:24:01;;;;;;;;;;;;;;;;;;4958714;28;20317;-65
2023/03/14 10:26:26;;;;;;;;;;;;;;;;;;4957837;28;19961;-65
2023/03/14 10:28:51;;;;;;;;;;;;;;;;;;4960625;28;20580;-66
2023/03/14 10:31:17;;;;;;;;;;;;;;;;;;4974775;28;20385;-64
2023/03/14 10:33:42;;;;;;;;;;;;;;;;;;4959040;28;20012;-65
2023/03/14 10:36:08;;;;;;;;;;;;;;;;;;4930084;28;19922;-64
2023/03/14 10:38:33;;;;;;;;;;;;;;;;;;4975182;28;19918;-65
2023/03/14 10:40:59;;;;;;;;;;;;;;;;;;4948184;28;19922;-65
2023/03/14 10:43:26;;;;;;;;;;;;;;;;;;4959813;28;19930;-65
2023/03/14 10:45:52;;;;;;;;;;;;;;;;;;4974765;28;19918;-64
2023/03/14 10:48:17;;;;;;;;;;;;;;;;;;4931948;28;20004;-66
2023/03/14 10:50:45;;;;;;;;;;;;;;;;;;4941070;28;19926;-65
2023/03/14 10:53:13;;;;;;;;;;;;;;;;;;4959357;28;20282;-64
2023/03/14 10:55:39;;;;;;;;;;;;;;;;;;4973853;28;19922;-66
2023/03/14 10:58:04;;;;;;;;;;;;;;;;;;4973439;28;19968;-64
2023/03/14 11:00:33;;;;;;;;;;;;;;;;;;4933579;28;19918;-64
2023/03/14 11:03:00;;;;;;;;;;;;;;;;;;4960176;28;20520;-64
2023/03/14 11:05:27;;;;;;;;;;;;;;;;;;4931279;28;20892;-64
2023/03/14 11:07:55;;;;;;;;;;;;;;;;;;4958569;28;19960;-65
2023/03/14 11:10:20;;;;;;;;;;;;;;;;;;4960090;28;19922;-64
2023/03/14 11:12:48;;;;;;;;;;;;;;;;;;4957536;28;19926;-64
2023/03/14 11:15:14;;;;;;;;;;;;;;;;;;4973285;28;19933;-64
2023/03/14 11:17:41;;;;;;;;;;;;;;;;;;4957522;28;19922;-63
2023/03/14 11:20:09;;;;;;;;;;;;;;;;;;4973582;28;19933;-64
2023/03/14 11:22:35;;;;;;;;;;;;;;;;;;4973827;28;19996;-64
2023/03/14 11:25:00;;;;;;;;;;;;;;;;;;4974147;28;19922;-64
2023/03/14 11:27:28;;;;;;;;;;;;;;;;;;4972979;28;19922;-66
2023/03/14 11:29:58;;;;;;;;;;;;;;;;;;4973694;28;20029;-66
2023/03/14 11:32:24;;;;;;;;;;;;;;;;;;4972947;28;20005;-66
2023/03/14 11:34:49;;;;;;;;;;;;;;;;;;4946446;28;21787;-66
2023/03/14 11:37:17;;;;;;;;;;;;;;;;;;4958584;28;19922;-66
2023/03/14 11:39:43;;;;;;;;;;;;;;;;;;4958413;28;20328;-64
2023/03/14 11:42:08;;;;;;;;;;;;;;;;;;4960525;28;20013;-65
2023/03/14 11:44:34;;;;;;;;;;;;;;;;;;4972742;28;19921;-65
2023/03/14 11:47:02;;;;;;;;;;;;;;;;;;4957653;28;19922;-64
2023/03/14 11:49:27;;;;;;;;;;;;;;;;;;4958874;28;19972;-65
2023/03/14 11:51:52;;;;;;;;;;;;;;;;;;4973132;28;20008;-65
2023/03/14 11:54:22;;;;;;;;;;;;;;;;;;4970599;28;20198;-65
2023/03/14 11:56:47;;;;;;;;;;;;;;;;;;4972974;28;20443;-66
2023/03/14 11:59:12;;;;;;;;;;;;;;;;;;4957572;28;20013;-65
2023/03/14 12:01:38;;;;;;;;;;;;;;;;;;4957861;28;19918;-66
2023/03/14 12:04:03;;;;;;;;;;;;;;;;;;4954350;28;19929;-64
2023/03/14 12:06:28;;;;;;;;;;;;;;;;;;4972609;28;20612;-64
2023/03/14 12:08:57;;;;;;;;;;;;;;;;;;4956838;28;19972;-65
2023/03/14 12:11:22;;;;;;;;;;;;;;;;;;4955597;28;20031;-64
2023/03/14 12:13:48;;;;;;;;;;;;;;;;;;4942578;28;19957;-65
2023/03/14 12:16:16;;;;;;;;;;;;;;;;;;4956349;28;19918;-64
2023/03/14 12:18:42;;;;;;;;;;;;;;;;;;4959052;28;19926;-65
2023/03/14 12:21:07;;;;;;;;;;;;;;;;;;4944407;28;19965;-64
2023/03/14 12:23:33;;;;;;;;;;;;;;;;;;4971374;28;20498;-67
2023/03/14 12:25:58;;;;;;;;;;;;;;;;;;4959002;28;19937;-65
2023/03/14 12:28:26;;;;;;;;;;;;;;;;;;4957624;28;19925;-65
2023/03/14 12:30:51;;;;;;;;;;;;;;;;;;4943488;28;20016;-65
2023/03/14 12:33:20;;;;;;;;;;;;;;;;;;4956586;28;19922;-65
2023/03/14 12:35:45;;;;;;;;;;;;;;;;;;4971992;28;19917;-64
2023/03/14 12:38:12;;;;;;;;;;;;;;;;;;4957613;28;19929;-64
2023/03/14 12:40:38;;;;;;;;;;;;;;;;;;4972497;28;19921;-63
2023/03/14 12:43:04;;;;;;;;;;;;;;;;;;4955390;28;19930;-64
2023/03/14 12:45:29;;;;;;;;;;;;;;;;;;4944373;28;19998;-63
2023/03/14 12:47:55;;;;;;;;;;;;;;;;;;4958374;28;20012;-64
2023/03/14 12:50:20;;;;;;;;;;;;;;;;;;4971191;28;20444;-64
2023/03/14 12:52:45;;;;;;;;;;;;;;;;;;4971816;28;19924;-64
2023/03/14 12:55:11;;;;;;;;;;;;;;;;;;4957401;28;19929;-65
2023/03/14 12:57:38;;;;;;;;;;;;;;;;;;4953764;28;19932;-64
2023/03/14 13:00:07;;;;;;;;;;;;;;;;;;4954292;28;19979;-64
2023/03/14 13:02:32;;;;;;;;;;;;;;;;;;4942922;28;19922;-64
2023/03/14 13:05:00;;;;;;;;;;;;;;;;;;4971194;28;19922;-64
2023/03/14 13:07:25;;;;;;;;;;;;;;;;;;4939133;28;19964;-64
2023/03/14 13:09:51;;;;;;;;;;;;;;;;;;4944216;28;19925;-64
2023/03/14 13:12:16;;;;;;;;;;;;;;;;;;4956510;28;19922;-64
2023/03/14 13:14:42;;;;;;;;;;;;;;;;;;4944332;28;20016;-65
2023/03/14 13:17:07;;;;;;;;;;;;;;;;;;4971912;28;19961;-66
2023/03/14 13:19:34;;;;;;;;;;;;;;;;;;4939680;28;19933;-64
2023/03/14 13:21:59;;;;;;;;;;;;;;;;;;4958833;28;19922;-64
2023/03/14 13:24:25;;;;;;;;;;;;;;;;;;4956000;28;20009;-64
2023/03/14 13:26:50;;;;;;;;;;;;;;;;;;4971098;28;19988;-64
2023/03/14 13:29:15;;;;;;;;;;;;;;;;;;4970685;28;19957;-65
2023/03/14 13:31:43;;;;;;;;;;;;;;;;;;4971975;28;19922;-65
2023/03/14 13:34:09;;;;;;;;;;;;;;;;;;4956187;28;19918;-65
2023/03/14 13:36:34;;;;;;;;;;;;;;;;;;4956524;28;19922;-66
2023/03/14 13:39:01;;;;;;;;;;;;;;;;;;4971009;28;19965;-65
2023/03/14 13:41:28;;;;;;;;;;;;;;;;;;4945146;28;20253;-65
2023/03/14 13:43:54;;;;;;;;;;;;;;;;;;4954801;28;21003;-66
2023/03/14 13:46:19;;;;;;;;;;;;;;;;;;4958400;28;19949;-66
2023/03/14 13:48:44;;;;;;;;;;;;;;;;;;4971185;28;19921;-65
2023/03/14 13:51:09;;;;;;;;;;;;;;;;;;4960771;28;20888;-65
2023/03/14 13:53:35;;;;;;;;;;;;;;;;;;4976322;28;19929;-65
2023/03/14 13:56:00;;;;;;;;;;;;;;;;;;4958831;28;19918;-64
2023/03/14 13:58:28;;;;;;;;;;;;;;;;;;4945457;28;19921;-64
2023/03/14 14:00:53;;;;;;;;;;;;;;;;;;4946594;28;19922;-65
2023/03/14 14:03:19;;;;;;;;;;;;;;;;;;4958624;28;19941;-66
2023/03/14 14:05:44;;;;;;;;;;;;;;;;;;4944581;28;19922;-64
2023/03/14 14:08:09;;;;;;;;;;;;;;;;;;4974576;28;19918;-66
2023/03/14 14:10:34;;;;;;;;;;;;;;;;;;4974960;28;19973;-66
2023/03/14 14:13:00;;;;;;;;;;;;;;;;;;4974227;28;20041;-67
2023/03/14 14:15:28;;;;;;;;;;;;;;;;;;4975325;28;19918;-64
2023/03/14 14:17:55;;;;;;;;;;;;;;;;;;4944997;28;19922;-64
2023/03/14 14:20:23;;;;;;;;;;;;;;;;;;4960369;28;19918;-64
2023/03/14 14:22:54;;;;;;;;;;;;;;;;;;4973907;28;19984;-64
2023/03/14 14:25:19;;;;;;;;;;;;;;;;;;4960410;28;19922;-66
2023/03/14 14:27:45;;;;;;;;;;;;;;;;;;4933761;28;19933;-65
2023/03/14 14:30:10;;;;;;;;;;;;;;;;;;4961528;28;19980;-65
2023/03/14 14:32:35;;;;;;;;;;;;;;;;;;4973614;28;19921;-64
2023/03/14 14:35:01;;;;;;;;;;;;;;;;;;4955952;28;19966;-65
2023/03/14 14:37:26;;;;;;;;;;;;;;;;;;4958439;28;20664;-64
2023/03/14 14:39:52;;;;;;;;;;;;;;;;;;4946123;28;19922;-64
2023/03/14 14:42:17;;;;;;;;;;;;;;;;;;4973819;28;19926;-65
2023/03/14 14:44:42;;;;;;;;;;;;;;;;;;4973568;28;19973;-64
2023/03/14 14:47:10;;;;;;;;;;;;;;;;;;4974155;28;20332;-63
2023/03/14 14:49:35;;;;;;;;;;;;;;;;;;4957198;28;19952;-64
2023/03/14 14:52:03;;;;;;;;;;;;;;;;;;4973345;28;19989;-65
2023/03/14 14:54:29;;;;;;;;;;;;;;;;;;4973786;28;20017;-64
2023/03/14 14:56:54;;;;;;;;;;;;;;;;;;4973039;28;20254;-63
2023/03/14 14:59:20;;;;;;;;;;;;;;;;;;4944127;28;20060;-64
2023/03/14 15:01:48;;;;;;;;;;;;;;;;;;4974050;28;19978;-70
2023/03/14 15:04:13;;;;;;;;;;;;;;;;;;4957914;28;19929;-63
2023/03/14 15:06:38;;;;;;;;;;;;;;;;;;4974102;28;19973;-65
2023/03/14 15:09:06;;;;;;;;;;;;;;;;;;4958402;28;19930;-64
2023/03/14 15:11:32;;;;;;;;;;;;;;;;;;4933973;28;19960;-63
2023/03/14 15:13:57;;;;;;;;;;;;;;;;;;4973226;28;20001;-63
2023/03/14 15:16:22;;;;;;;;;;;;;;;;;;4960597;28;20392;-65
2023/03/14 15:18:50;;;;;;;;;;;;;;;;;;4971503;28;19973;-63
2023/03/14 15:21:20;;;;;;;;;;;;;;;;;;4971165;28;19957;-63
2023/03/14 15:23:45;;;;;;;;;;;;;;;;;;4954659;28;20025;-63
2023/03/14 15:26:11;;;;;;;;;;;;;;;;;;4972746;28;19934;-64
2023/03/14 15:28:36;;;;;;;;;;;;;;;;;;4947216;28;19928;-62
2023/03/14 15:31:02;;;;;;;;;;;;;;;;;;4957232;28;19917;-63
2023/03/14 15:33:28;;;;;;;;;;;;;;;;;;4947377;28;19922;-63
2023/03/14 15:35:56;;;;;;;;;;;;;;;;;;4971115;28;19937;-64
2023/03/14 15:41:54;;;;;;;;;;;;;;;;;;4951327;28;20897;-64
2023/03/14 15:44:39;;;;;;;;;;;;;;;;;;4949050;28;19924;-64
2023/03/14 15:47:05;;;;;;;;;;;;;;;;;;4947559;28;20267;-65
2023/03/14 15:49:31;;;;;;;;;;;;;;;;;;4962963;28;19921;-66
2023/03/14 15:51:57;;;;;;;;;;;;;;;;;;4966312;28;19921;-64
2023/03/14 15:54:22;;;;;;;;;;;;;;;;;;4953282;28;19925;-64
2023/03/14 15:56:47;;;;;;;;;;;;;;;;;;4969004;28;19925;-63
2023/03/14 15:59:13;;;;;;;;;;;;;;;;;;4955299;28;19918;-65
2023/03/14 16:01:38;;;;;;;;;;;;;;;;;;4946660;28;21981;-63
2023/03/14 16:04:03;;;;;;;;;;;;;;;;;;4971696;28;19918;-65
2023/03/14 16:06:30;;;;;;;;;;;;;;;;;;4963859;28;19968;-64
2023/03/14 16:08:55;;;;;;;;;;;;;;;;;;4951897;28;19933;-64
2023/03/14 16:11:21;;;;;;;;;;;;;;;;;;4956348;28;20061;-64
2023/03/14 16:13:46;;;;;;;;;;;;;;;;;;4967996;28;19932;-63
2023/03/14 16:16:12;;;;;;;;;;;;;;;;;;4939291;28;20376;-63
2023/03/14 16:18:39;;;;;;;;;;;;;;;;;;4939185;28;19976;-65
2023/03/14 16:21:08;;;;;;;;;;;;;;;;;;4969225;28;20008;-64
2023/03/14 16:23:33;;;;;;;;;;;;;;;;;;4938265;28;20150;-64
2023/03/14 16:25:58;;;;;;;;;;;;;;;;;;4936256;28;19926;-64
2023/03/14 16:28:23;;;;;;;;;;;;;;;;;;4936399;28;20052;-63
2023/03/14 16:30:49;;;;;;;;;;;;;;;;;;4967147;28;19961;-67
2023/03/14 16:33:14;;;;;;;;;;;;;;;;;;4939276;28;20052;-64
2023/03/14 16:35:39;;;;;;;;;;;;;;;;;;4932637;28;20082;-64
2023/03/14 16:38:05;;;;;;;;;;;;;;;;;;4956662;28;19942;-64
2023/03/14 16:40:32;;;;;;;;;;;;;;;;;;4969502;28;19928;-63
2023/03/14 16:42:58;;;;;;;;;;;;;;;;;;4955544;28;20401;-63
2023/03/14 16:45:26;;;;;;;;;;;;;;;;;;4955175;28;19928;-64
2023/03/14 16:47:59;;;;;;;;;;;;;;;;;;4941854;28;20274;-64
2023/03/14 16:50:30;;;;;;;;;;;;;;;;;;4936118;28;19933;-63